Ashton, Illinois
Current Conditions -  °F | °C
As of 6:35 PM on Monday 24 Nov 2014 (Local Time) from KRPJ Reporting Station
Light Snow Light Snow  
Wind Chill:   Ceiling: 1700
Heat Index: 24°   Visibility: 4mi
Dew Point: 21°   Wind: 22mph
Humidity: 88%   Direction: 260°W
Pressure: 29.7"   Gusts: 33mph
Location:  41.87°N, 89.22°W
Report Text: KRPJ 250035Z AUTO 26019G29KT 4SM -SN OVC017 M04/M06 A2970 RMK AO2 T10431060
Loading
Personal Weather Stations






























Interactive Weather Map New forecast layout! Learn more

10-Day Weather Forecast

Advertisements
Track Severe Weather on mobile